createdAt,value
2022-08-17T04:00:29.065Z,67.66
2022-08-17T04:01:29.078Z,67.19
2022-08-17T04:02:29.020Z,67.59
2022-08-17T04:03:28.999Z,68.06
2022-08-17T04:04:28.993Z,68.56
2022-08-17T04:05:28.977Z,68.06
2022-08-17T04:06:28.965Z,68.79
2022-08-17T04:07:28.971Z,68.69
2022-08-17T04:08:28.944Z,69.19
2022-08-17T04:09:28.936Z,69.19
2022-08-17T04:10:28.921Z,69.29
2022-08-17T04:11:33.934Z,69.12
2022-08-17T04:12:28.908Z,69.43
2022-08-17T04:13:28.895Z,68.79
2022-08-17T04:14:28.882Z,68.39
2022-08-17T04:15:28.869Z,68.52
2022-08-17T04:16:28.855Z,68.39
2022-08-17T04:17:28.860Z,68.59
2022-08-17T04:18:28.833Z,68.59
2022-08-17T04:19:28.823Z,69.29
2022-08-17T04:20:28.812Z,69.19
2022-08-17T04:21:28.800Z,70.59
2022-08-17T04:22:34.448Z,70.92
2022-08-17T04:23:28.787Z,71.62
2022-08-17T04:24:28.766Z,70.86
2022-08-17T04:25:28.755Z,70.76
2022-08-17T04:26:52.981Z,71.46
2022-08-17T04:27:29.743Z,70.96
2022-08-17T04:28:28.721Z,71.19
2022-08-17T04:29:28.714Z,71.19
2022-08-17T04:30:29.705Z,71.00
2022-08-17T04:31:28.690Z,70.96
2022-08-17T04:33:03.665Z,71.16
2022-08-17T04:33:34.694Z,71.56
2022-08-17T04:34:28.660Z,71.19
2022-08-17T04:35:28.646Z,71.46
2022-08-17T04:36:28.639Z,70.96
2022-08-17T04:37:28.638Z,70.96
2022-08-17T04:38:28.611Z,71.00
2022-08-17T04:39:28.635Z,70.50
2022-08-17T04:40:28.589Z,70.76
2022-08-17T04:41:28.581Z,71.00
2022-08-17T04:42:28.567Z,70.79
2022-08-17T04:43:28.568Z,69.59
2022-08-17T04:44:37.648Z,69.86
2022-08-17T04:45:32.321Z,69.06
2022-08-17T04:46:28.522Z,69.16
2022-08-17T04:47:28.515Z,69.36
2022-08-17T04:48:35.695Z,69.06
2022-08-17T04:49:29.531Z,69.86
2022-08-17T04:50:28.479Z,69.86
2022-08-17T04:51:28.469Z,69.76
2022-08-17T04:52:29.875Z,69.39
2022-08-17T04:53:29.463Z,70.26
2022-08-17T04:54:28.438Z,69.59
2022-08-17T04:55:33.447Z,70.09
2022-08-17T04:56:28.418Z,69.46
2022-08-17T04:57:28.403Z,69.46
2022-08-17T04:58:28.403Z,69.56
2022-08-17T04:59:28.378Z,69.26
2022-08-17T05:00:28.369Z,69.26
2022-08-17T05:01:28.475Z,69.96
2022-08-17T05:02:28.362Z,69.66
2022-08-17T05:03:28.335Z,69.76
2022-08-17T05:04:34.396Z,69.76
2022-08-17T05:05:29.316Z,69.86
2022-08-17T05:06:33.324Z,69.96
2022-08-17T05:07:31.413Z,69.43
2022-08-17T05:08:28.280Z,69.16
2022-08-17T05:09:28.268Z,69.26
2022-08-17T05:10:28.259Z,69.56
2022-08-17T05:11:28.249Z,69.16
2022-08-17T05:12:28.247Z,69.76
2022-08-17T05:13:28.224Z,69.56
2022-08-17T05:14:32.835Z,70.79
2022-08-17T05:15:29.202Z,70.79
2022-08-17T05:16:28.191Z,70.76
2022-08-17T05:17:33.225Z,71.09
2022-08-17T05:18:28.170Z,70.89
2022-08-17T05:19:28.157Z,71.19
2022-08-17T05:20:28.153Z,71.09
2022-08-17T05:21:28.136Z,71.03
2022-08-17T05:22:28.126Z,71.23
2022-08-17T05:23:35.553Z,71.12
2022-08-17T05:24:38.330Z,71.43
2022-08-17T05:25:29.094Z,71.09
2022-08-17T05:26:28.791Z,71.59
2022-08-17T05:27:32.232Z,71.30
2022-08-17T05:28:34.095Z,71.00
2022-08-17T05:29:35.213Z,70.79
2022-08-17T05:30:29.037Z,71.09
2022-08-17T05:31:28.023Z,70.79
2022-08-17T05:32:37.951Z,69.79
2022-08-17T05:33:29.013Z,69.76
2022-08-17T05:34:27.993Z,69.59
2022-08-17T05:35:27.981Z,69.79
2022-08-17T05:36:41.984Z,69.79
2022-08-17T05:37:28.966Z,69.99
2022-08-17T05:38:27.958Z,70.06
2022-08-17T05:39:32.991Z,69.89
2022-08-17T05:40:27.926Z,69.26
2022-08-17T05:41:28.914Z,69.59
2022-08-17T05:42:27.904Z,69.59
2022-08-17T05:43:27.902Z,69.56
2022-08-17T05:44:27.896Z,69.26
2022-08-17T05:45:54.257Z,69.06
2022-08-17T05:46:28.860Z,68.66
2022-08-17T05:47:27.848Z,68.66
2022-08-17T05:48:35.677Z,67.66
2022-08-17T05:49:28.825Z,67.43
2022-08-17T05:50:32.837Z,66.42
2022-08-17T05:51:27.814Z,66.82
2022-08-17T05:52:27.793Z,66.93
2022-08-17T05:53:27.795Z,66.42
2022-08-17T05:54:27.819Z,67.02
2022-08-17T05:55:27.769Z,67.32
2022-08-17T05:56:30.419Z,66.52
2022-08-17T05:57:27.766Z,66.93
2022-08-17T05:58:27.735Z,66.93
2022-08-17T05:59:27.723Z,66.79
2022-08-17T06:00:30.694Z,67.52
2022-08-17T06:01:32.772Z,67.69
2022-08-17T06:02:27.694Z,67.63
2022-08-17T06:03:27.829Z,66.89
2022-08-17T06:04:27.666Z,67.13
2022-08-17T06:05:27.661Z,67.09
2022-08-17T06:06:31.196Z,66.99
2022-08-17T06:07:27.628Z,67.02
2022-08-17T06:08:27.690Z,65.72
2022-08-17T06:09:33.008Z,65.83
2022-08-17T06:10:28.670Z,65.92
2022-08-17T06:11:27.590Z,65.02
2022-08-17T06:12:32.600Z,65.12
2022-08-17T06:13:27.571Z,65.12
2022-08-17T06:14:27.552Z,64.92
2022-08-17T06:15:27.538Z,64.52
2022-08-17T06:16:34.091Z,63.42
2022-08-17T06:17:28.514Z,63.53
2022-08-17T06:18:27.527Z,64.83
2022-08-17T06:19:27.500Z,64.25
2022-08-17T06:20:27.575Z,64.36
2022-08-17T06:21:31.952Z,63.72
2022-08-17T06:22:27.480Z,63.75
2022-08-17T06:23:32.555Z,63.72
2022-08-17T06:24:27.477Z,63.82
2022-08-17T06:25:27.426Z,63.79
2022-08-17T06:26:27.584Z,62.79
2022-08-17T06:27:28.403Z,63.19
2022-08-17T06:28:27.422Z,62.39
2022-08-17T06:29:27.390Z,62.66
2022-08-17T06:30:27.498Z,63.39
2022-08-17T06:31:27.375Z,63.59
2022-08-17T06:32:27.350Z,63.59
2022-08-17T06:33:27.340Z,63.19
2022-08-17T06:34:32.360Z,62.72
2022-08-17T06:35:32.090Z,62.72
2022-08-17T06:36:28.313Z,62.92
2022-08-17T06:37:27.295Z,63.92
2022-08-17T06:38:36.965Z,63.95
2022-08-17T06:39:31.268Z,63.62
2022-08-17T06:40:27.328Z,63.82
2022-08-17T06:41:27.248Z,63.92
2022-08-17T06:43:02.927Z,64.12
2022-08-17T06:43:28.226Z,64.12
2022-08-17T06:44:49.804Z,63.92
2022-08-17T06:45:33.457Z,63.53
2022-08-17T06:46:27.212Z,63.62
2022-08-17T06:47:28.495Z,63.92
2022-08-17T06:48:27.176Z,63.92
2022-08-17T06:49:27.170Z,63.82
2022-08-17T06:50:27.287Z,63.82
2022-08-17T06:51:27.147Z,63.92
2022-08-17T06:52:46.007Z,64.12
2022-08-17T06:53:28.117Z,64.12
2022-08-17T06:54:27.116Z,63.53
2022-08-17T06:55:27.100Z,63.82
2022-08-17T06:56:53.263Z,63.72
2022-08-17T06:57:28.071Z,65.83
2022-08-17T06:58:29.822Z,65.72
2022-08-17T06:59:54.343Z,65.42
2022-08-17T07:00:28.128Z,65.83
2022-08-17T07:01:27.181Z,65.36
2022-08-17T07:02:29.506Z,65.75
2022-08-17T07:03:28.769Z,65.83
2022-08-17T07:04:27.430Z,65.62
2022-08-17T07:05:27.236Z,65.92
2022-08-17T07:06:27.248Z,64.92
2022-08-17T07:07:32.120Z,65.12
2022-08-17T07:08:30.576Z,65.55
2022-08-17T07:09:27.946Z,65.22
2022-08-17T07:10:26.935Z,65.22
2022-08-17T07:11:26.916Z,65.72
2022-08-17T07:12:26.907Z,65.75
2022-08-17T07:13:26.896Z,65.52
2022-08-17T07:14:26.894Z,65.92
2022-08-17T07:15:26.871Z,65.42
2022-08-17T07:16:26.863Z,64.22
2022-08-17T07:17:46.508Z,64.52
2022-08-17T07:18:32.861Z,65.02
2022-08-17T07:19:26.841Z,63.69
2022-08-17T07:20:26.817Z,64.32
2022-08-17T07:21:26.937Z,64.12
2022-08-17T07:22:26.794Z,64.52
2022-08-17T07:23:26.784Z,64.22
2022-08-17T07:24:30.109Z,64.62
2022-08-17T07:25:26.777Z,64.42
2022-08-17T07:26:26.749Z,64.22
2022-08-17T07:27:26.737Z,64.32
2022-08-17T07:28:26.731Z,64.75
2022-08-17T07:29:31.747Z,64.42
2022-08-17T07:30:26.711Z,63.82
2022-08-17T07:31:26.709Z,64.22
2022-08-17T07:32:26.682Z,64.22
2022-08-17T07:33:26.671Z,63.79
2022-08-17T07:34:26.693Z,63.89
2022-08-17T07:35:26.648Z,63.82
2022-08-17T07:36:30.126Z,63.89
2022-08-17T07:37:26.627Z,63.59
2022-08-17T07:38:27.142Z,63.89
2022-08-17T07:39:26.631Z,63.89
2022-08-17T07:40:31.689Z,63.89
2022-08-17T07:41:26.593Z,64.00
2022-08-17T07:42:27.572Z,63.79
2022-08-17T07:43:26.565Z,64.00
2022-08-17T07:44:26.561Z,64.00
2022-08-17T07:45:26.564Z,64.26
2022-08-17T07:46:26.526Z,63.79
2022-08-17T07:47:26.523Z,64.09
2022-08-17T07:48:26.506Z,64.19
2022-08-17T07:49:26.506Z,63.89
2022-08-17T07:50:27.621Z,63.59
2022-08-17T07:51:31.505Z,64.69
2022-08-17T07:52:50.986Z,64.19
2022-08-17T07:53:27.452Z,64.09
2022-08-17T07:54:26.447Z,65.09
2022-08-17T07:55:26.427Z,66.09
2022-08-17T07:56:26.416Z,65.29
2022-08-17T07:57:29.993Z,65.59
2022-08-17T07:58:26.402Z,65.59
2022-08-17T07:59:33.220Z,65.59
2022-08-17T08:00:31.737Z,65.49
2022-08-17T08:01:27.375Z,65.96
2022-08-17T08:02:33.885Z,65.46
2022-08-17T08:03:26.402Z,65.26
2022-08-17T08:04:49.905Z,65.36
2022-08-17T08:05:49.765Z,65.69
2022-08-17T08:06:27.303Z,65.29
2022-08-17T08:07:26.294Z,65.39
2022-08-17T08:08:26.283Z,65.39
2022-08-17T08:09:26.281Z,64.89
2022-08-17T08:10:26.260Z,65.59
2022-08-17T08:11:26.251Z,65.39
2022-08-17T08:12:32.689Z,64.96
2022-08-17T08:13:32.366Z,64.79
2022-08-17T08:14:28.258Z,64.29
2022-08-17T08:15:26.216Z,64.16
2022-08-17T08:16:26.194Z,65.16
2022-08-17T08:17:26.183Z,65.16
2022-08-17T08:18:53.706Z,64.06
2022-08-17T08:19:27.160Z,64.26
2022-08-17T08:20:51.106Z,65.06
2022-08-17T08:21:27.136Z,65.49
2022-08-17T08:22:26.129Z,65.16
2022-08-17T08:23:26.116Z,65.16
2022-08-17T08:24:31.237Z,64.96
2022-08-17T08:25:26.102Z,65.46
2022-08-17T08:26:26.084Z,65.56
2022-08-17T08:27:26.069Z,66.29
2022-08-17T08:28:26.071Z,66.09
2022-08-17T08:29:26.048Z,65.06
2022-08-17T08:30:26.052Z,65.66
2022-08-17T08:31:26.029Z,65.46
2022-08-17T08:32:26.016Z,66.16
2022-08-17T08:33:26.003Z,65.66
2022-08-17T08:34:53.467Z,65.96
2022-08-17T08:35:32.035Z,65.46
2022-08-17T08:37:14.187Z,65.96
2022-08-17T08:37:34.498Z,65.16
2022-08-17T08:38:26.947Z,65.76
2022-08-17T08:39:26.031Z,65.86
2022-08-17T08:40:25.938Z,65.86
2022-08-17T08:41:25.913Z,65.86
2022-08-17T08:42:25.911Z,66.16
2022-08-17T08:43:25.896Z,66.16
2022-08-17T08:45:00.244Z,66.53
2022-08-17T08:45:26.881Z,66.56
2022-08-17T08:46:30.884Z,66.96
2022-08-17T08:47:25.867Z,66.26
2022-08-17T08:48:53.391Z,66.16
2022-08-17T08:49:59.193Z,66.33
2022-08-17T08:50:36.877Z,66.06
2022-08-17T08:51:26.813Z,66.53
2022-08-17T08:52:25.796Z,66.13
2022-08-17T08:53:25.783Z,66.03
2022-08-17T08:54:26.555Z,65.83
2022-08-17T08:55:25.779Z,66.73
2022-08-17T08:56:25.758Z,66.83
2022-08-17T08:57:33.958Z,65.73
2022-08-17T08:58:31.467Z,65.96
2022-08-17T08:59:26.724Z,65.83
2022-08-17T09:00:25.730Z,65.53
2022-08-17T09:01:25.740Z,64.93
2022-08-17T09:02:25.683Z,65.40
2022-08-17T09:03:43.838Z,65.30
2022-08-17T09:04:26.661Z,65.40
2022-08-17T09:05:25.665Z,64.80
2022-08-17T09:06:37.793Z,65.40
2022-08-17T09:07:26.628Z,65.40
2022-08-17T09:08:30.639Z,65.70
2022-08-17T09:09:25.610Z,65.00
2022-08-17T09:10:25.594Z,65.70
2022-08-17T09:11:25.592Z,65.30
2022-08-17T09:12:25.572Z,65.10
2022-08-17T09:13:25.564Z,64.27
2022-08-17T09:14:28.742Z,65.17
2022-08-17T09:15:25.542Z,64.17
2022-08-17T09:16:25.537Z,64.17
2022-08-17T09:17:25.516Z,64.17
2022-08-17T09:19:02.256Z,64.17
2022-08-17T09:19:31.516Z,64.37
2022-08-17T09:20:28.067Z,64.44
2022-08-17T09:21:25.484Z,64.37
2022-08-17T09:22:25.464Z,64.17
2022-08-17T09:23:25.457Z,64.37
2022-08-17T09:24:25.439Z,64.64
2022-08-17T09:25:25.432Z,63.24
2022-08-17T09:26:25.440Z,63.44
2022-08-17T09:27:25.408Z,63.41
2022-08-17T09:28:25.395Z,63.51
2022-08-17T09:29:25.400Z,63.51
2022-08-17T09:30:30.400Z,63.21
2022-08-17T09:31:27.703Z,62.88
2022-08-17T09:32:25.351Z,62.29
2022-08-17T09:33:25.342Z,62.38
2022-08-17T09:34:32.075Z,62.29
2022-08-17T09:35:32.937Z,62.38
2022-08-17T09:36:26.321Z,62.26
2022-08-17T09:37:25.323Z,61.66
2022-08-17T09:38:28.109Z,62.35
2022-08-17T09:39:26.353Z,62.15
2022-08-17T09:40:25.269Z,60.66
2022-08-17T09:41:30.370Z,59.91
2022-08-17T09:42:25.244Z,60.00
2022-08-17T09:43:25.241Z,60.17
2022-08-17T09:44:25.224Z,59.88
2022-08-17T09:45:25.213Z,60.08
2022-08-17T09:46:25.211Z,59.88
2022-08-17T09:47:25.188Z,59.88
2022-08-17T09:48:25.177Z,59.88
2022-08-17T09:49:25.465Z,60.08
2022-08-17T09:51:03.184Z,59.98
2022-08-17T09:51:26.158Z,60.27
2022-08-17T09:52:30.155Z,59.78
2022-08-17T09:53:25.125Z,60.08
2022-08-17T09:54:38.635Z,60.80
2022-08-17T09:55:26.101Z,60.77
2022-08-17T09:56:25.097Z,61.20
2022-08-17T09:57:32.671Z,60.80
2022-08-17T09:58:29.068Z,61.00
2022-08-17T09:59:25.057Z,60.77
2022-08-17T10:00:25.062Z,61.37
2022-08-17T10:01:25.148Z,61.80
2022-08-17T10:02:25.023Z,61.90
2022-08-17T10:03:30.034Z,62.13
2022-08-17T10:04:29.465Z,61.90
2022-08-17T10:05:24.995Z,62.62
2022-08-17T10:06:24.986Z,62.32
2022-08-17T10:07:25.028Z,62.42
2022-08-17T10:08:24.955Z,62.40
2022-08-17T10:09:24.945Z,62.40
2022-08-17T10:10:24.935Z,62.29
2022-08-17T10:11:33.815Z,62.40
2022-08-17T10:12:30.191Z,62.49
2022-08-17T10:13:24.900Z,63.09
2022-08-17T10:14:36.455Z,62.99
2022-08-17T10:15:25.878Z,63.69
2022-08-17T10:16:24.875Z,63.32
2022-08-17T10:17:24.857Z,64.22
2022-08-17T10:18:24.900Z,65.01
2022-08-17T10:19:25.830Z,66.14
2022-08-17T10:20:24.818Z,66.34
2022-08-17T10:21:24.828Z,67.03
2022-08-17T10:22:34.850Z,67.13
2022-08-17T10:23:25.786Z,67.86
2022-08-17T10:24:24.774Z,68.56
2022-08-17T10:25:48.595Z,69.20
2022-08-17T10:26:25.760Z,69.69
2022-08-17T10:27:24.787Z,69.29
2022-08-17T10:28:29.568Z,69.09
2022-08-17T10:29:25.725Z,68.93
2022-08-17T10:30:24.710Z,69.49
2022-08-17T10:31:40.057Z,69.89
2022-08-17T10:32:25.682Z,70.23
2022-08-17T10:33:24.672Z,70.42
2022-08-17T10:34:24.679Z,70.72
2022-08-17T10:35:24.686Z,69.32
2022-08-17T10:36:29.673Z,69.53
2022-08-17T10:37:24.677Z,69.43
2022-08-17T10:38:24.856Z,69.53
2022-08-17T10:39:24.606Z,69.20
2022-08-17T10:40:24.713Z,69.32
2022-08-17T10:41:24.603Z,68.99
2022-08-17T10:42:30.834Z,69.09
2022-08-17T10:43:25.559Z,68.79
2022-08-17T10:44:40.233Z,69.59
2022-08-17T10:45:25.559Z,70.59
2022-08-17T10:46:30.324Z,69.20
2022-08-17T10:47:42.295Z,69.09
2022-08-17T10:48:25.507Z,68.40
2022-08-17T10:49:24.503Z,68.99
2022-08-17T10:50:24.482Z,69.09
2022-08-17T10:51:24.489Z,68.70
2022-08-17T10:52:25.045Z,68.40
2022-08-17T10:53:24.448Z,68.79
2022-08-17T10:54:24.449Z,68.30
2022-08-17T10:55:24.427Z,68.43
2022-08-17T10:56:24.416Z,68.53
2022-08-17T10:57:24.415Z,68.40
2022-08-17T10:58:29.419Z,68.00
2022-08-17T10:59:24.387Z,68.10
2022-08-17T11:00:27.621Z,68.10
2022-08-17T11:01:24.403Z,68.30
2022-08-17T11:02:24.360Z,68.10
2022-08-17T11:03:24.341Z,68.10
2022-08-17T11:04:25.071Z,68.40
2022-08-17T11:05:24.319Z,67.10
2022-08-17T11:06:24.303Z,67.17
2022-08-17T11:07:24.303Z,66.90
2022-08-17T11:08:24.307Z,66.60
2022-08-17T11:09:29.295Z,66.07
2022-08-17T11:10:24.271Z,65.87
2022-08-17T11:11:24.250Z,65.77
2022-08-17T11:12:24.253Z,65.77
2022-08-17T11:13:24.229Z,65.67
2022-08-17T11:14:24.212Z,65.97
2022-08-17T11:15:24.204Z,65.14
2022-08-17T11:16:24.194Z,65.24
2022-08-17T11:17:24.195Z,64.54
2022-08-17T11:18:24.212Z,64.75
2022-08-17T11:19:24.159Z,64.61
2022-08-17T11:20:29.194Z,64.51
2022-08-17T11:21:24.136Z,62.49
2022-08-17T11:22:24.139Z,62.10
2022-08-17T11:23:24.128Z,62.07
2022-08-17T11:24:24.117Z,60.55
2022-08-17T11:25:24.094Z,60.74
2022-08-17T11:26:24.079Z,60.74
2022-08-17T11:27:24.092Z,59.82
2022-08-17T11:28:24.058Z,58.73
2022-08-17T11:29:24.663Z,58.33
2022-08-17T11:30:24.037Z,57.93
2022-08-17T11:31:38.747Z,58.03
2022-08-17T11:32:25.022Z,58.40
2022-08-17T11:33:24.037Z,57.70
2022-08-17T11:34:23.991Z,57.87
2022-08-17T11:35:23.982Z,57.58
2022-08-17T11:36:23.973Z,57.58
2022-08-17T11:37:23.972Z,57.75
2022-08-17T11:38:23.951Z,57.65
2022-08-17T11:39:23.938Z,57.35
2022-08-17T11:40:23.925Z,57.95
2022-08-17T11:41:23.917Z,57.42
2022-08-17T11:42:28.934Z,57.92
2022-08-17T11:43:25.673Z,57.82
2022-08-17T11:44:23.880Z,57.72
2022-08-17T11:45:32.263Z,57.53
2022-08-17T11:46:24.861Z,57.79
2022-08-17T11:47:23.860Z,57.79
2022-08-17T11:48:28.334Z,58.09
2022-08-17T11:49:24.827Z,57.99
2022-08-17T11:50:27.679Z,57.79
2022-08-17T11:51:23.807Z,57.79
2022-08-17T11:52:23.809Z,57.59
2022-08-17T11:53:28.812Z,57.89
2022-08-17T11:54:33.329Z,57.79
2022-08-17T11:55:35.466Z,58.02
2022-08-17T11:56:24.768Z,57.92
2022-08-17T11:57:23.760Z,58.12
2022-08-17T11:58:23.731Z,57.62
2022-08-17T11:59:23.757Z,57.82
2022-08-17T12:00:23.711Z,58.02
2022-08-17T12:01:23.697Z,57.53
2022-08-17T12:02:23.686Z,57.53
2022-08-17T12:03:23.776Z,57.53
2022-08-17T12:04:28.799Z,57.53
2022-08-17T12:05:23.657Z,57.50
2022-08-17T12:06:23.647Z,57.10
2022-08-17T12:07:24.644Z,57.92
2022-08-17T12:08:23.622Z,58.12
2022-08-17T12:09:23.612Z,58.12
2022-08-17T12:10:23.600Z,58.12
2022-08-17T12:11:56.359Z,58.12
2022-08-17T12:12:24.587Z,57.53
2022-08-17T12:13:23.569Z,58.51
2022-08-17T12:14:45.075Z,58.61
2022-08-17T12:15:29.571Z,58.51
2022-08-17T12:16:23.535Z,58.32
2022-08-17T12:17:41.613Z,57.53
2022-08-17T12:18:24.518Z,57.65
2022-08-17T12:19:23.506Z,58.25
2022-08-17T12:20:23.497Z,57.87
2022-08-17T12:21:23.486Z,57.85
2022-08-17T12:22:23.480Z,58.44
2022-08-17T12:23:23.467Z,57.45
2022-08-17T12:24:23.449Z,57.85
2022-08-17T12:25:23.443Z,58.15
2022-08-17T12:26:28.451Z,58.54
2022-08-17T12:28:04.109Z,57.85
2022-08-17T12:28:24.406Z,58.15
2022-08-17T12:29:38.398Z,57.68
2022-08-17T12:30:24.384Z,57.87
2022-08-17T12:31:23.376Z,58.07
2022-08-17T12:32:23.363Z,57.68
2022-08-17T12:33:28.055Z,57.68
2022-08-17T12:34:24.339Z,58.17
2022-08-17T12:35:23.336Z,58.17
2022-08-17T12:36:23.318Z,58.47
2022-08-17T12:37:28.331Z,59.07
2022-08-17T12:38:32.447Z,58.07
2022-08-17T12:39:24.946Z,58.87
2022-08-17T12:40:23.277Z,58.37
2022-08-17T12:41:23.267Z,58.77
2022-08-17T12:42:23.253Z,58.77
2022-08-17T12:43:23.253Z,58.27
2022-08-17T12:44:23.236Z,58.37
2022-08-17T12:45:23.223Z,59.17
2022-08-17T12:46:23.209Z,59.59
2022-08-17T12:47:23.391Z,59.66
2022-08-17T12:48:28.225Z,59.66
2022-08-17T12:49:23.182Z,59.59
2022-08-17T12:50:29.679Z,59.89
2022-08-17T12:51:24.160Z,60.49
2022-08-17T12:52:23.142Z,60.58
2022-08-17T12:53:23.142Z,60.58
2022-08-17T12:54:23.138Z,60.09
2022-08-17T12:55:23.111Z,59.79
2022-08-17T12:56:23.104Z,59.69
2022-08-17T12:57:23.113Z,59.59
2022-08-17T12:58:23.095Z,58.60
2022-08-17T12:59:29.929Z,58.10
2022-08-17T13:00:23.062Z,58.00
2022-08-17T13:01:23.103Z,57.60
2022-08-17T13:02:23.050Z,57.51
2022-08-17T13:03:23.047Z,57.18
2022-08-17T13:04:23.011Z,56.98
2022-08-17T13:05:23.001Z,57.38
2022-08-17T13:06:22.993Z,57.58
2022-08-17T13:07:22.985Z,57.68
2022-08-17T13:08:22.994Z,57.25
2022-08-17T13:09:23.010Z,57.28
2022-08-17T13:10:32.875Z,57.45
2022-08-17T13:11:22.938Z,56.95
2022-08-17T13:12:22.924Z,56.16
2022-08-17T13:13:22.935Z,56.66
2022-08-17T13:14:22.906Z,57.23
2022-08-17T13:15:22.896Z,57.23
2022-08-17T13:16:22.881Z,57.40
2022-08-17T13:17:22.869Z,57.59
2022-08-17T13:18:22.865Z,58.09
2022-08-17T13:19:39.979Z,57.79
2022-08-17T13:20:23.834Z,57.59
2022-08-17T13:21:27.851Z,58.29
2022-08-17T13:22:22.818Z,57.69
2022-08-17T13:23:22.813Z,57.89
2022-08-17T13:24:22.803Z,57.89
2022-08-17T13:25:22.787Z,57.59
2022-08-17T13:26:22.771Z,57.07
2022-08-17T13:27:22.760Z,56.77
2022-08-17T13:28:35.631Z,57.50
2022-08-17T13:29:23.750Z,57.50
2022-08-17T13:30:22.748Z,57.89
2022-08-17T13:31:22.738Z,57.29
2022-08-17T13:32:27.728Z,57.50
2022-08-17T13:33:22.693Z,57.59
2022-08-17T13:34:23.890Z,57.37
2022-08-17T13:35:29.685Z,56.97
2022-08-17T13:36:26.388Z,55.88
2022-08-17T13:37:23.220Z,56.08
2022-08-17T13:38:22.640Z,55.98
2022-08-17T13:39:22.641Z,54.47
2022-08-17T13:40:22.623Z,54.57
2022-08-17T13:41:22.629Z,54.96
2022-08-17T13:42:22.631Z,54.67
2022-08-17T13:43:27.608Z,54.47
2022-08-17T13:44:22.596Z,54.64
2022-08-17T13:45:35.506Z,54.24
2022-08-17T13:46:23.555Z,54.57
2022-08-17T13:47:22.544Z,54.57
2022-08-17T13:48:22.533Z,54.17
2022-08-17T13:49:22.532Z,54.07
2022-08-17T13:50:22.513Z,54.14
2022-08-17T13:51:22.507Z,54.54
2022-08-17T13:52:25.635Z,54.14
2022-08-17T13:53:22.477Z,54.14
2022-08-17T13:54:27.508Z,54.24
2022-08-17T13:55:22.461Z,54.35
2022-08-17T13:56:38.830Z,54.05
2022-08-17T13:57:23.435Z,54.35
2022-08-17T13:58:22.424Z,53.95
2022-08-17T13:59:36.289Z,54.52
2022-08-17T14:00:23.413Z,54.12
2022-08-17T14:01:22.430Z,53.92
2022-08-17T14:02:22.382Z,53.23
2022-08-17T14:03:22.400Z,53.23
2022-08-17T14:04:22.364Z,54.22
2022-08-17T14:05:27.421Z,54.12
2022-08-17T14:06:52.448Z,53.33
2022-08-17T14:07:23.326Z,53.42
2022-08-17T14:08:22.323Z,52.44
2022-08-17T14:09:22.317Z,53.82
2022-08-17T14:10:22.309Z,52.34
2022-08-17T14:11:22.292Z,53.42
2022-08-17T14:12:22.275Z,53.23
2022-08-17T14:13:22.265Z,53.13
2022-08-17T14:14:22.253Z,52.64
2022-08-17T14:15:22.251Z,52.44
2022-08-17T14:16:27.255Z,52.34
2022-08-17T14:17:22.219Z,52.83
2022-08-17T14:18:31.204Z,52.26
2022-08-17T14:19:23.198Z,52.36
2022-08-17T14:20:22.201Z,52.76
2022-08-17T14:21:22.178Z,53.23
2022-08-17T14:22:22.167Z,52.24
2022-08-17T14:23:22.155Z,52.04
2022-08-17T14:24:22.146Z,52.14
2022-08-17T14:25:22.403Z,51.45
2022-08-17T14:26:22.124Z,51.84
2022-08-17T14:27:27.136Z,51.65
2022-08-17T14:28:22.102Z,51.42
2022-08-17T14:29:22.092Z,51.54
2022-08-17T14:30:22.092Z,51.54
2022-08-17T14:31:22.082Z,51.65
2022-08-17T14:32:22.070Z,51.62
2022-08-17T14:33:22.049Z,51.52
2022-08-17T14:34:22.040Z,51.45
2022-08-17T14:35:22.035Z,51.54
2022-08-17T14:36:22.021Z,51.15
2022-08-17T14:37:22.006Z,51.72
2022-08-17T14:38:27.017Z,51.23
2022-08-17T14:39:21.990Z,51.23
2022-08-17T14:40:22.028Z,50.83
2022-08-17T14:41:22.454Z,50.83
2022-08-17T14:42:21.951Z,51.03
2022-08-17T14:43:21.936Z,50.24
2022-08-17T14:44:21.939Z,49.74
2022-08-17T14:45:29.830Z,49.35
2022-08-17T14:46:22.904Z,48.36
2022-08-17T14:47:21.892Z,48.06
2022-08-17T14:48:21.888Z,48.75
2022-08-17T14:49:26.906Z,48.06
2022-08-17T14:50:21.863Z,48.36
2022-08-17T14:51:21.849Z,48.36
2022-08-17T14:52:22.030Z,48.53
2022-08-17T14:53:21.828Z,49.22
2022-08-17T14:54:33.041Z,48.43
2022-08-17T14:55:22.817Z,49.02
2022-08-17T14:56:21.797Z,48.93
2022-08-17T14:57:33.013Z,49.13
2022-08-17T14:58:22.771Z,49.62
2022-08-17T14:59:21.761Z,49.22
2022-08-17T15:00:26.786Z,49.72
2022-08-17T15:01:21.801Z,49.32
2022-08-17T15:02:21.733Z,48.93
2022-08-17T15:03:22.732Z,49.72
2022-08-17T15:04:21.705Z,49.62
2022-08-17T15:05:21.703Z,49.52
2022-08-17T15:06:21.685Z,49.42
2022-08-17T15:07:21.671Z,49.72
2022-08-17T15:08:22.694Z,49.82
2022-08-17T15:09:21.661Z,49.32
2022-08-17T15:10:21.655Z,49.40
2022-08-17T15:11:26.648Z,48.21
2022-08-17T15:12:21.618Z,48.31
2022-08-17T15:13:21.609Z,47.42
2022-08-17T15:14:21.596Z,47.91
2022-08-17T15:15:21.603Z,47.22
2022-08-17T15:16:21.609Z,46.73
2022-08-17T15:17:21.560Z,46.63
2022-08-17T15:18:21.554Z,46.63
2022-08-17T15:19:21.538Z,46.53
2022-08-17T15:20:21.538Z,47.03
2022-08-17T15:21:21.518Z,46.83
2022-08-17T15:22:26.534Z,46.93
2022-08-17T15:23:21.496Z,47.91
2022-08-17T15:24:21.485Z,47.81
2022-08-17T15:25:21.487Z,47.91
2022-08-17T15:26:26.009Z,47.79
2022-08-17T15:27:25.787Z,47.89
2022-08-17T15:28:22.442Z,46.81
2022-08-17T15:29:21.434Z,46.22
2022-08-17T15:30:21.434Z,46.61
2022-08-17T15:31:31.969Z,46.53
2022-08-17T15:32:22.397Z,46.41
2022-08-17T15:33:26.407Z,46.81
2022-08-17T15:34:21.376Z,46.61
2022-08-17T15:35:25.164Z,45.62
2022-08-17T15:36:22.376Z,45.82
2022-08-17T15:37:21.410Z,44.73
2022-08-17T15:38:21.333Z,45.03
2022-08-17T15:39:21.320Z,44.93
2022-08-17T15:40:21.323Z,43.94
2022-08-17T15:41:21.299Z,43.94
2022-08-17T15:42:21.289Z,43.35
2022-08-17T15:43:26.672Z,43.15
2022-08-17T15:44:32.405Z,42.96
2022-08-17T15:45:22.378Z,42.16
2022-08-17T15:46:21.244Z,43.25
2022-08-17T15:47:21.232Z,42.88
2022-08-17T15:48:21.234Z,43.94
2022-08-17T15:49:21.211Z,43.87
2022-08-17T15:50:21.213Z,43.94
2022-08-17T15:51:21.188Z,44.46
2022-08-17T15:52:21.183Z,45.13
2022-08-17T15:53:21.168Z,45.32
2022-08-17T15:54:22.779Z,45.15
2022-08-17T15:55:26.180Z,44.34
2022-08-17T15:56:21.134Z,43.55
2022-08-17T15:57:21.122Z,44.04
2022-08-17T15:58:21.114Z,43.05
2022-08-17T15:59:22.098Z,43.96
2022-08-17T16:00:21.110Z,44.56
2022-08-17T16:01:45.449Z,44.16
2022-08-17T16:03:13.486Z,44.43
2022-08-17T16:04:01.452Z,43.84
2022-08-17T16:04:30.383Z,44.16
2022-08-17T16:05:24.240Z,43.35
2022-08-17T16:06:26.048Z,42.76
2022-08-17T16:07:26.411Z,43.57
2022-08-17T16:08:22.003Z,43.57
2022-08-17T16:09:21.051Z,43.66
2022-08-17T16:10:21.114Z,43.57
2022-08-17T16:11:20.974Z,43.65
2022-08-17T16:12:20.977Z,43.47
2022-08-17T16:13:20.955Z,43.45
2022-08-17T16:14:20.944Z,43.66
2022-08-17T16:15:20.940Z,43.65
2022-08-17T16:16:20.932Z,43.55
2022-08-17T16:17:49.380Z,43.94
2022-08-17T16:18:22.072Z,44.26
2022-08-17T16:19:20.885Z,44.06
2022-08-17T16:20:21.139Z,44.06
2022-08-17T16:21:20.861Z,43.96
2022-08-17T16:22:20.858Z,44.36
2022-08-17T16:23:20.841Z,44.26
2022-08-17T16:24:20.830Z,44.75
2022-08-17T16:25:20.994Z,44.65
2022-08-17T16:26:20.807Z,44.65
2022-08-17T16:27:20.798Z,44.06
2022-08-17T16:28:35.592Z,44.46
2022-08-17T16:29:21.772Z,44.65
2022-08-17T16:30:20.776Z,44.75
2022-08-17T16:31:20.757Z,44.95
2022-08-17T16:32:20.748Z,45.25
2022-08-17T16:33:21.742Z,45.74
2022-08-17T16:34:20.732Z,45.74
2022-08-17T16:35:20.925Z,46.04
2022-08-17T16:36:20.698Z,45.05
2022-08-17T16:37:20.686Z,45.74
2022-08-17T16:38:20.677Z,45.84
2022-08-17T16:39:25.711Z,45.64
2022-08-17T16:40:20.665Z,45.64
2022-08-17T16:41:20.645Z,45.84
2022-08-17T16:42:20.645Z,45.64
2022-08-17T16:43:20.621Z,45.45
2022-08-17T16:44:20.614Z,46.04
2022-08-17T16:45:20.610Z,45.74
2022-08-17T16:46:20.635Z,46.63
2022-08-17T16:47:20.580Z,46.83
2022-08-17T16:48:20.569Z,46.55
2022-08-17T16:49:31.568Z,46.36
2022-08-17T16:50:26.576Z,46.66
2022-08-17T16:51:20.541Z,46.66
2022-08-17T16:52:32.645Z,46.26